sensor_id;sensor_type;location;lat;lon;timestamp;pressure;altitude;pressure_sealevel;temperature;humidity
10006;BME280;5042;42.626;23.382;2023-02-10T00:01:54;96119.41;;;-5.42;100.00
10006;BME280;5042;42.626;23.382;2023-02-10T00:04:22;96116.69;;;-5.37;100.00
10006;BME280;5042;42.626;23.382;2023-02-10T00:06:49;96110.75;;;-5.38;100.00
10006;BME280;5042;42.626;23.382;2023-02-10T00:09:15;96118.38;;;-5.36;100.00
10006;BME280;5042;42.626;23.382;2023-02-10T00:11:42;96118.28;;;-5.33;100.00
10006;BME280;5042;42.626;23.382;2023-02-10T00:14:25;96086.38;;;-5.75;100.00
10006;BME280;5042;42.626;23.382;2023-02-10T00:16:53;96105.31;;;-5.82;100.00
10006;BME280;5042;42.626;23.382;2023-02-10T00:19:23;96109.88;;;-6.18;100.00
10006;BME280;5042;42.626;23.382;2023-02-10T00:21:50;96124.50;;;-6.23;100.00
10006;BME280;5042;42.626;23.382;2023-02-10T00:24:17;96111.09;;;-6.31;100.00
10006;BME280;5042;42.626;23.382;2023-02-10T00:26:44;96115.50;;;-6.36;100.00
10006;BME280;5042;42.626;23.382;2023-02-10T00:29:11;96115.88;;;-6.49;100.00
10006;BME280;5042;42.626;23.382;2023-02-10T00:31:38;96113.00;;;-6.68;100.00
10006;BME280;5042;42.626;23.382;2023-02-10T00:34:05;96107.47;;;-6.84;100.00
10006;BME280;5042;42.626;23.382;2023-02-10T00:36:33;96102.88;;;-6.71;100.00
10006;BME280;5042;42.626;23.382;2023-02-10T00:39:00;96101.28;;;-6.75;100.00
10006;BME280;5042;42.626;23.382;2023-02-10T00:41:26;96101.25;;;-6.73;100.00
10006;BME280;5042;42.626;23.382;2023-02-10T00:43:53;96099.31;;;-6.65;100.00
10006;BME280;5042;42.626;23.382;2023-02-10T00:46:21;96030.63;;;-7.03;100.00
10006;BME280;5042;42.626;23.382;2023-02-10T00:48:48;96076.69;;;-6.77;100.00
10006;BME280;5042;42.626;23.382;2023-02-10T00:51:16;96070.00;;;-6.82;100.00
10006;BME280;5042;42.626;23.382;2023-02-10T00:53:45;96079.84;;;-6.69;100.00
10006;BME280;5042;42.626;23.382;2023-02-10T00:56:13;96087.69;;;-6.75;100.00
10006;BME280;5042;42.626;23.382;2023-02-10T00:58:40;96079.41;;;-6.84;100.00
10006;BME280;5042;42.626;23.382;2023-02-10T01:01:07;96079.25;;;-6.77;100.00
10006;BME280;5042;42.626;23.382;2023-02-10T01:03:33;96077.59;;;-6.78;100.00
10006;BME280;5042;42.626;23.382;2023-02-10T01:06:00;96079.16;;;-6.74;100.00
10006;BME280;5042;42.626;23.382;2023-02-10T01:08:28;96074.06;;;-6.74;100.00
10006;BME280;5042;42.626;23.382;2023-02-10T01:11:00;96072.63;;;-6.83;100.00
10006;BME280;5042;42.626;23.382;2023-02-10T01:13:27;96053.81;;;-7.10;100.00
10006;BME280;5042;42.626;23.382;2023-02-10T01:15:54;96077.19;;;-6.96;100.00
10006;BME280;5042;42.626;23.382;2023-02-10T01:18:21;96073.34;;;-7.11;100.00
10006;BME280;5042;42.626;23.382;2023-02-10T01:20:48;96059.69;;;-7.08;100.00
10006;BME280;5042;42.626;23.382;2023-02-10T01:23:15;96067.44;;;-7.11;100.00
10006;BME280;5042;42.626;23.382;2023-02-10T01:25:42;96048.69;;;-7.10;100.00
10006;BME280;5042;42.626;23.382;2023-02-10T01:28:10;96063.16;;;-7.11;100.00
10006;BME280;5042;42.626;23.382;2023-02-10T01:30:37;96054.34;;;-7.30;100.00
10006;BME280;5042;42.626;23.382;2023-02-10T01:33:04;96046.09;;;-7.40;100.00
10006;BME280;5042;42.626;23.382;2023-02-10T01:35:31;96053.44;;;-7.29;100.00
10006;BME280;5042;42.626;23.382;2023-02-10T01:37:57;96055.97;;;-7.28;100.00
10006;BME280;5042;42.626;23.382;2023-02-10T01:40:25;96050.69;;;-7.21;100.00
10006;BME280;5042;42.626;23.382;2023-02-10T01:42:52;96048.94;;;-7.19;100.00
10006;BME280;5042;42.626;23.382;2023-02-10T01:45:24;95925.53;;;-8.04;100.00
10006;BME280;5042;42.626;23.382;2023-02-10T01:47:53;96043.06;;;-7.21;100.00
10006;BME280;5042;42.626;23.382;2023-02-10T01:50:25;96042.22;;;-7.22;100.00
10006;BME280;5042;42.626;23.382;2023-02-10T01:52:53;96053.31;;;-7.23;100.00
10006;BME280;5042;42.626;23.382;2023-02-10T01:55:23;95999.50;;;-7.45;100.00
10006;BME280;5042;42.626;23.382;2023-02-10T01:57:52;96035.28;;;-7.17;100.00
10006;BME280;5042;42.626;23.382;2023-02-10T02:00:22;96038.59;;;-7.13;100.00
10006;BME280;5042;42.626;23.382;2023-02-10T02:02:50;96028.78;;;-7.27;100.00
10006;BME280;5042;42.626;23.382;2023-02-10T02:05:21;96028.78;;;-7.27;100.00
10006;BME280;5042;42.626;23.382;2023-02-10T02:07:48;96016.91;;;-7.28;100.00
10006;BME280;5042;42.626;23.382;2023-02-10T02:10:16;96016.34;;;-7.38;100.00
10006;BME280;5042;42.626;23.382;2023-02-10T02:12:50;96011.94;;;-7.33;100.00
10006;BME280;5042;42.626;23.382;2023-02-10T02:15:25;96007.72;;;-7.34;100.00
10006;BME280;5042;42.626;23.382;2023-02-10T02:17:59;96004.81;;;-7.21;100.00
10006;BME280;5042;42.626;23.382;2023-02-10T02:20:55;96004.25;;;-7.31;100.00
10006;BME280;5042;42.626;23.382;2023-02-10T02:23:55;96004.34;;;-7.34;100.00
10006;BME280;5042;42.626;23.382;2023-02-10T02:26:43;95991.81;;;-7.42;100.00
10006;BME280;5042;42.626;23.382;2023-02-10T02:29:39;95989.63;;;-7.56;100.00
10006;BME280;5042;42.626;23.382;2023-02-10T02:32:14;95989.53;;;-7.53;100.00
10006;BME280;5042;42.626;23.382;2023-02-10T02:34:43;95987.81;;;-7.52;100.00
10006;BME280;5042;42.626;23.382;2023-02-10T02:37:18;95900.97;;;-8.05;100.00
10006;BME280;5042;42.626;23.382;2023-02-10T02:39:48;95977.94;;;-7.64;100.00
10006;BME280;5042;42.626;23.382;2023-02-10T02:42:19;95987.22;;;-7.62;100.00
10006;BME280;5042;42.626;23.382;2023-02-10T02:44:48;95990.66;;;-7.63;100.00
10006;BME280;5042;42.626;23.382;2023-02-10T02:47:40;95990.53;;;-7.58;100.00
10006;BME280;5042;42.626;23.382;2023-02-10T02:50:20;95983.69;;;-7.56;100.00
10006;BME280;5042;42.626;23.382;2023-02-10T02:52:58;95974.06;;;-7.78;100.00
10006;BME280;5042;42.626;23.382;2023-02-10T02:55:36;95990.09;;;-7.74;100.00
10006;BME280;5042;42.626;23.382;2023-02-10T02:58:11;95993.19;;;-7.63;100.00
10006;BME280;5042;42.626;23.382;2023-02-10T03:00:41;95996.13;;;-7.46;100.00
10006;BME280;5042;42.626;23.382;2023-02-10T03:03:11;95998.28;;;-7.30;100.00
10006;BME280;5042;42.626;23.382;2023-02-10T03:05:38;95998.81;;;-7.19;100.00
10006;BME280;5042;42.626;23.382;2023-02-10T03:08:04;95994.56;;;-7.18;100.00
10006;BME280;5042;42.626;23.382;2023-02-10T03:10:31;95989.53;;;-7.21;100.00
10006;BME280;5042;42.626;23.382;2023-02-10T03:12:58;95984.31;;;-7.17;100.00
10006;BME280;5042;42.626;23.382;2023-02-10T03:15:25;95988.91;;;-7.30;100.00
10006;BME280;5042;42.626;23.382;2023-02-10T03:17:51;95990.13;;;-7.43;100.00
10006;BME280;5042;42.626;23.382;2023-02-10T03:20:19;95996.97;;;-7.45;100.00
10006;BME280;5042;42.626;23.382;2023-02-10T03:22:46;96000.31;;;-7.43;100.00
10006;BME280;5042;42.626;23.382;2023-02-10T03:25:13;95997.16;;;-7.53;100.00
10006;BME280;5042;42.626;23.382;2023-02-10T03:27:40;96004.09;;;-7.58;100.00
10006;BME280;5042;42.626;23.382;2023-02-10T03:30:07;95999.31;;;-7.69;100.00
10006;BME280;5042;42.626;23.382;2023-02-10T03:32:34;96001.91;;;-7.72;100.00
10006;BME280;5042;42.626;23.382;2023-02-10T03:35:01;95988.53;;;-7.80;100.00
10006;BME280;5042;42.626;23.382;2023-02-10T03:37:29;95996.56;;;-7.62;100.00
10006;BME280;5042;42.626;23.382;2023-02-10T03:39:56;95990.69;;;-7.64;100.00
10006;BME280;5042;42.626;23.382;2023-02-10T03:42:23;95986.88;;;-7.48;100.00
10006;BME280;5042;42.626;23.382;2023-02-10T03:44:49;95979.88;;;-7.40;100.00
10006;BME280;5042;42.626;23.382;2023-02-10T03:47:16;95981.84;;;-7.51;100.00
10006;BME280;5042;42.626;23.382;2023-02-10T03:49:43;95976.50;;;-7.73;100.00
10006;BME280;5042;42.626;23.382;2023-02-10T03:52:10;95984.66;;;-7.60;100.00
10006;BME280;5042;42.626;23.382;2023-02-10T03:54:38;95977.16;;;-7.67;100.00
10006;BME280;5042;42.626;23.382;2023-02-10T03:57:04;95978.19;;;-7.74;100.00
10006;BME280;5042;42.626;23.382;2023-02-10T03:59:31;95982.34;;;-7.70;100.00
10006;BME280;5042;42.626;23.382;2023-02-10T04:01:58;95971.56;;;-7.79;100.00
10006;BME280;5042;42.626;23.382;2023-02-10T04:04:25;95883.31;;;-8.44;100.00
10006;BME280;5042;42.626;23.382;2023-02-10T04:06:52;95953.25;;;-7.94;100.00
10006;BME280;5042;42.626;23.382;2023-02-10T04:09:18;95971.53;;;-7.78;100.00
10006;BME280;5042;42.626;23.382;2023-02-10T04:11:47;95973.97;;;-7.75;100.00
10006;BME280;5042;42.626;23.382;2023-02-10T04:14:14;95967.84;;;-7.68;100.00
10006;BME280;5042;42.626;23.382;2023-02-10T04:16:40;95974.34;;;-7.56;100.00
10006;BME280;5042;42.626;23.382;2023-02-10T04:19:07;95974.38;;;-7.26;100.00
10006;BME280;5042;42.626;23.382;2023-02-10T04:21:34;95970.75;;;-7.17;100.00
10006;BME280;5042;42.626;23.382;2023-02-10T04:24:01;95978.38;;;-7.47;100.00
10006;BME280;5042;42.626;23.382;2023-02-10T04:26:27;95974.00;;;-7.43;100.00
10006;BME280;5042;42.626;23.382;2023-02-10T04:28:55;95975.50;;;-7.68;100.00
10006;BME280;5042;42.626;23.382;2023-02-10T04:31:22;95979.06;;;-7.73;100.00
10006;BME280;5042;42.626;23.382;2023-02-10T04:33:49;95976.13;;;-7.92;100.00
10006;BME280;5042;42.626;23.382;2023-02-10T04:36:16;95973.22;;;-8.13;100.00
10006;BME280;5042;42.626;23.382;2023-02-10T04:38:43;95970.19;;;-8.27;100.00
10006;BME280;5042;42.626;23.382;2023-02-10T04:41:09;95963.81;;;-8.43;100.00
10006;BME280;5042;42.626;23.382;2023-02-10T04:43:36;95975.66;;;-8.42;100.00
10006;BME280;5042;42.626;23.382;2023-02-10T04:46:04;95973.91;;;-8.40;100.00
10006;BME280;5042;42.626;23.382;2023-02-10T04:48:31;95965.84;;;-8.58;100.00
10006;BME280;5042;42.626;23.382;2023-02-10T04:50:58;95987.38;;;-8.37;100.00
10006;BME280;5042;42.626;23.382;2023-02-10T04:53:24;95986.00;;;-8.48;100.00
10006;BME280;5042;42.626;23.382;2023-02-10T04:55:51;95988.44;;;-8.45;100.00
10006;BME280;5042;42.626;23.382;2023-02-10T04:58:18;95987.72;;;-8.50;100.00
10006;BME280;5042;42.626;23.382;2023-02-10T05:00:47;95985.31;;;-8.57;100.00
10006;BME280;5042;42.626;23.382;2023-02-10T05:03:15;95983.56;;;-8.55;100.00
10006;BME280;5042;42.626;23.382;2023-02-10T05:05:41;95989.97;;;-8.76;100.00
10006;BME280;5042;42.626;23.382;2023-02-10T05:08:08;95993.56;;;-8.84;100.00
10006;BME280;5042;42.626;23.382;2023-02-10T05:10:35;95991.69;;;-8.76;100.00
10006;BME280;5042;42.626;23.382;2023-02-10T05:13:02;95995.38;;;-8.89;100.00
10006;BME280;5042;42.626;23.382;2023-02-10T05:15:30;95994.69;;;-8.98;100.00
10006;BME280;5042;42.626;23.382;2023-02-10T05:17:56;96000.69;;;-9.02;100.00
10006;BME280;5042;42.626;23.382;2023-02-10T05:20:24;95996.94;;;-8.85;100.00
10006;BME280;5042;42.626;23.382;2023-02-10T05:22:51;96008.84;;;-8.87;100.00
10006;BME280;5042;42.626;23.382;2023-02-10T05:25:18;96015.56;;;-8.83;100.00
10006;BME280;5042;42.626;23.382;2023-02-10T05:27:45;96014.06;;;-8.92;100.00
10006;BME280;5042;42.626;23.382;2023-02-10T05:30:12;96026.63;;;-8.87;100.00
10006;BME280;5042;42.626;23.382;2023-02-10T05:32:39;96030.06;;;-8.88;100.00
10006;BME280;5042;42.626;23.382;2023-02-10T05:35:07;96028.25;;;-8.83;100.00
10006;BME280;5042;42.626;23.382;2023-02-10T05:37:35;96033.41;;;-8.85;100.00
10006;BME280;5042;42.626;23.382;2023-02-10T05:40:02;96033.13;;;-8.72;100.00
10006;BME280;5042;42.626;23.382;2023-02-10T05:42:29;96046.97;;;-8.86;100.00
10006;BME280;5042;42.626;23.382;2023-02-10T05:44:56;96040.84;;;-8.77;100.00
10006;BME280;5042;42.626;23.382;2023-02-10T05:47:23;96051.09;;;-8.80;100.00
10006;BME280;5042;42.626;23.382;2023-02-10T05:49:50;96054.91;;;-8.61;100.00
10006;BME280;5042;42.626;23.382;2023-02-10T05:52:17;96054.06;;;-8.61;100.00
10006;BME280;5042;42.626;23.382;2023-02-10T05:54:45;96050.84;;;-8.69;100.00
10006;BME280;5042;42.626;23.382;2023-02-10T05:57:11;96053.50;;;-8.74;100.00
10006;BME280;5042;42.626;23.382;2023-02-10T05:59:38;96052.63;;;-8.73;100.00
10006;BME280;5042;42.626;23.382;2023-02-10T06:02:06;96053.50;;;-8.76;100.00
10006;BME280;5042;42.626;23.382;2023-02-10T06:04:33;96060.28;;;-8.75;100.00
10006;BME280;5042;42.626;23.382;2023-02-10T06:07:00;96058.75;;;-8.82;100.00
10006;BME280;5042;42.626;23.382;2023-02-10T06:09:27;96063.00;;;-8.84;100.00
10006;BME280;5042;42.626;23.382;2023-02-10T06:11:55;96065.50;;;-8.81;100.00
10006;BME280;5042;42.626;23.382;2023-02-10T06:14:21;96067.72;;;-8.65;100.00
10006;BME280;5042;42.626;23.382;2023-02-10T06:16:48;96006.09;;;-8.39;100.00
10006;BME280;5042;42.626;23.382;2023-02-10T06:19:15;96071.28;;;-6.96;100.00
10006;BME280;5042;42.626;23.382;2023-02-10T06:21:42;96082.41;;;-5.83;100.00
10006;BME280;5042;42.626;23.382;2023-02-10T06:24:09;96081.22;;;-4.96;100.00
10006;BME280;5042;42.626;23.382;2023-02-10T06:26:36;96088.13;;;-4.75;96.98
10006;BME280;5042;42.626;23.382;2023-02-10T06:29:05;96089.25;;;-4.58;97.35
10006;BME280;5042;42.626;23.382;2023-02-10T06:31:31;96088.22;;;-4.07;91.88
10006;BME280;5042;42.626;23.382;2023-02-10T06:33:58;96090.63;;;-3.80;85.22
10006;BME280;5042;42.626;23.382;2023-02-10T06:36:25;96090.91;;;-3.24;85.55
10006;BME280;5042;42.626;23.382;2023-02-10T06:38:51;96096.69;;;-2.98;77.20
10006;BME280;5042;42.626;23.382;2023-02-10T06:41:18;96101.69;;;-3.80;78.36
10006;BME280;5042;42.626;23.382;2023-02-10T06:43:45;96106.53;;;-4.18;82.15
10006;BME280;5042;42.626;23.382;2023-02-10T06:46:14;96097.38;;;-4.71;85.51
10006;BME280;5042;42.626;23.382;2023-02-10T06:48:41;96099.38;;;-5.04;92.53
10006;BME280;5042;42.626;23.382;2023-02-10T06:51:07;96104.66;;;-5.60;98.91
10006;BME280;5042;42.626;23.382;2023-02-10T06:53:34;96102.16;;;-5.62;100.00
10006;BME280;5042;42.626;23.382;2023-02-10T06:56:02;96105.81;;;-5.95;100.00
10006;BME280;5042;42.626;23.382;2023-02-10T06:58:29;96104.34;;;-6.04;100.00
10006;BME280;5042;42.626;23.382;2023-02-10T07:00:55;96115.75;;;-5.88;100.00
10006;BME280;5042;42.626;23.382;2023-02-10T07:03:25;96119.53;;;-5.73;100.00
10006;BME280;5042;42.626;23.382;2023-02-10T07:05:52;96105.59;;;-5.63;100.00
10006;BME280;5042;42.626;23.382;2023-02-10T07:08:19;96111.56;;;-5.62;100.00
10006;BME280;5042;42.626;23.382;2023-02-10T07:10:45;96109.88;;;-5.91;100.00
10006;BME280;5042;42.626;23.382;2023-02-10T07:13:12;96105.31;;;-5.82;100.00
10006;BME280;5042;42.626;23.382;2023-02-10T07:15:39;96112.19;;;-5.84;100.00
10006;BME280;5042;42.626;23.382;2023-02-10T07:18:05;96099.88;;;-5.71;100.00
10006;BME280;5042;42.626;23.382;2023-02-10T07:20:34;96096.94;;;-5.59;100.00
10006;BME280;5042;42.626;23.382;2023-02-10T07:23:00;96088.78;;;-5.43;100.00
10006;BME280;5042;42.626;23.382;2023-02-10T07:25:27;96095.56;;;-5.42;100.00
10006;BME280;5042;42.626;23.382;2023-02-10T07:27:54;96092.72;;;-5.33;100.00
10006;BME280;5042;42.626;23.382;2023-02-10T07:30:20;96093.22;;;-5.23;100.00
10006;BME280;5042;42.626;23.382;2023-02-10T07:32:47;96092.81;;;-5.36;100.00
10006;BME280;5042;42.626;23.382;2023-02-10T07:35:14;96097.16;;;-5.38;100.00
10006;BME280;5042;42.626;23.382;2023-02-10T07:37:42;96098.13;;;-5.42;100.00
10006;BME280;5042;42.626;23.382;2023-02-10T07:40:10;96091.97;;;-5.37;100.00
10006;BME280;5042;42.626;23.382;2023-02-10T07:42:36;96082.25;;;-5.27;100.00
10006;BME280;5042;42.626;23.382;2023-02-10T07:45:04;96086.97;;;-5.15;100.00
10006;BME280;5042;42.626;23.382;2023-02-10T07:47:30;96075.59;;;-5.31;100.00
10006;BME280;5042;42.626;23.382;2023-02-10T07:49:57;96088.31;;;-5.29;100.00
10006;BME280;5042;42.626;23.382;2023-02-10T07:52:24;96086.81;;;-5.35;100.00
10006;BME280;5042;42.626;23.382;2023-02-10T07:54:52;96087.47;;;-5.30;100.00
10006;BME280;5042;42.626;23.382;2023-02-10T07:57:20;96090.72;;;-5.25;100.00
10006;BME280;5042;42.626;23.382;2023-02-10T07:59:47;96089.88;;;-5.25;100.00
10006;BME280;5042;42.626;23.382;2023-02-10T08:02:14;96081.09;;;-5.17;100.00
10006;BME280;5042;42.626;23.382;2023-02-10T08:04:40;96097.88;;;-5.09;100.00
10006;BME280;5042;42.626;23.382;2023-02-10T08:07:07;96099.69;;;-5.13;100.00
10006;BME280;5042;42.626;23.382;2023-02-10T08:09:36;96095.97;;;-5.03;100.00
10006;BME280;5042;42.626;23.382;2023-02-10T08:12:04;96098.56;;;-5.04;100.00
10006;BME280;5042;42.626;23.382;2023-02-10T08:14:31;96089.63;;;-4.93;100.00
10006;BME280;5042;42.626;23.382;2023-02-10T08:16:58;96093.19;;;-4.48;100.00
10006;BME280;5042;42.626;23.382;2023-02-10T08:19:25;96088.00;;;-3.79;100.00
10006;BME280;5042;42.626;23.382;2023-02-10T08:21:51;96092.44;;;-2.99;95.05
10006;BME280;5042;42.626;23.382;2023-02-10T08:24:18;96097.06;;;-2.28;83.16
10006;BME280;5042;42.626;23.382;2023-02-10T08:26:45;96103.47;;;-1.99;78.12
10006;BME280;5042;42.626;23.382;2023-02-10T08:29:13;96096.22;;;-1.55;75.47
10006;BME280;5042;42.626;23.382;2023-02-10T08:31:40;96099.22;;;-0.75;71.07
10006;BME280;5042;42.626;23.382;2023-02-10T08:34:13;96099.28;;;-0.44;69.37
10006;BME280;5042;42.626;23.382;2023-02-10T08:36:40;96096.81;;;-0.29;66.87
10006;BME280;5042;42.626;23.382;2023-02-10T08:39:07;96085.63;;;-0.28;63.92
10006;BME280;5042;42.626;23.382;2023-02-10T08:41:34;96102.59;;;-0.08;62.32
10006;BME280;5042;42.626;23.382;2023-02-10T08:44:01;96102.75;;;0.52;60.43
10006;BME280;5042;42.626;23.382;2023-02-10T08:46:29;96104.59;;;0.80;58.77
10006;BME280;5042;42.626;23.382;2023-02-10T08:48:56;96090.16;;;1.22;59.64
10006;BME280;5042;42.626;23.382;2023-02-10T08:51:26;96103.94;;;2.36;57.49
10006;BME280;5042;42.626;23.382;2023-02-10T08:53:53;96103.78;;;2.25;52.91
10006;BME280;5042;42.626;23.382;2023-02-10T08:56:21;96085.66;;;2.25;51.25
10006;BME280;5042;42.626;23.382;2023-02-10T08:58:48;96093.84;;;2.04;52.92
10006;BME280;5042;42.626;23.382;2023-02-10T09:01:17;96075.78;;;1.76;53.28
10006;BME280;5042;42.626;23.382;2023-02-10T09:03:47;96080.69;;;2.22;53.98
10006;BME280;5042;42.626;23.382;2023-02-10T09:06:15;96090.38;;;2.60;50.92
10006;BME280;5042;42.626;23.382;2023-02-10T09:08:42;96084.13;;;2.89;52.08
10006;BME280;5042;42.626;23.382;2023-02-10T09:11:09;96078.00;;;3.30;48.48
10006;BME280;5042;42.626;23.382;2023-02-10T09:13:35;96070.53;;;3.51;48.04
10006;BME280;5042;42.626;23.382;2023-02-10T09:16:02;96081.34;;;2.92;48.39
10006;BME280;5042;42.626;23.382;2023-02-10T09:18:29;96077.66;;;3.22;51.64
10006;BME280;5042;42.626;23.382;2023-02-10T09:20:58;96074.91;;;4.13;49.55
10006;BME280;5042;42.626;23.382;2023-02-10T09:23:25;96070.41;;;4.52;47.80
10006;BME280;5042;42.626;23.382;2023-02-10T09:25:53;96072.16;;;4.28;48.10
10006;BME280;5042;42.626;23.382;2023-02-10T09:28:20;96078.22;;;4.15;47.20
10006;BME280;5042;42.626;23.382;2023-02-10T09:30:47;96064.69;;;4.47;47.24
10006;BME280;5042;42.626;23.382;2023-02-10T09:33:14;96062.91;;;4.23;46.86
10006;BME280;5042;42.626;23.382;2023-02-10T09:35:40;96059.00;;;3.17;48.55
10006;BME280;5042;42.626;23.382;2023-02-10T09:38:09;96049.19;;;1.74;51.68
10006;BME280;5042;42.626;23.382;2023-02-10T09:40:46;96058.88;;;0.82;54.45
10006;BME280;5042;42.626;23.382;2023-02-10T09:43:24;96059.22;;;0.46;54.60
10006;BME280;5042;42.626;23.382;2023-02-10T09:46:00;96043.81;;;-0.02;57.33
10006;BME280;5042;42.626;23.382;2023-02-10T09:48:31;96039.56;;;-0.34;57.66
10006;BME280;5042;42.626;23.382;2023-02-10T09:51:08;96042.94;;;-0.34;61.02
10006;BME280;5042;42.626;23.382;2023-02-10T09:53:43;96045.03;;;-0.40;60.08
10006;BME280;5042;42.626;23.382;2023-02-10T09:56:16;96033.47;;;-0.33;61.76
10006;BME280;5042;42.626;23.382;2023-02-10T09:58:46;95989.25;;;-0.73;59.23
10006;BME280;5042;42.626;23.382;2023-02-10T10:01:17;96032.41;;;-0.45;61.46
10006;BME280;5042;42.626;23.382;2023-02-10T10:03:48;96031.03;;;-0.68;63.64
10006;BME280;5042;42.626;23.382;2023-02-10T10:06:21;96034.00;;;-0.76;62.68
10006;BME280;5042;42.626;23.382;2023-02-10T10:08:59;96028.47;;;-0.86;61.91
10006;BME280;5042;42.626;23.382;2023-02-10T10:11:33;96017.41;;;-1.03;62.82
10006;BME280;5042;42.626;23.382;2023-02-10T10:14:02;96008.38;;;-1.12;64.90
10006;BME280;5042;42.626;23.382;2023-02-10T10:16:54;95993.63;;;-1.09;65.16
10006;BME280;5042;42.626;23.382;2023-02-10T10:19:35;96001.13;;;-1.04;68.71
10006;BME280;5042;42.626;23.382;2023-02-10T10:22:18;95998.81;;;-0.93;69.26
10006;BME280;5042;42.626;23.382;2023-02-10T10:25:04;95994.59;;;-0.94;70.43
10006;BME280;5042;42.626;23.382;2023-02-10T10:27:42;96002.66;;;-0.84;69.88
10006;BME280;5042;42.626;23.382;2023-02-10T10:30:17;95994.69;;;-0.79;69.46
10006;BME280;5042;42.626;23.382;2023-02-10T10:32:46;95985.09;;;-0.76;70.20
10006;BME280;5042;42.626;23.382;2023-02-10T10:35:16;95995.31;;;-0.58;65.89
10006;BME280;5042;42.626;23.382;2023-02-10T10:37:43;95994.38;;;-0.57;63.34
10006;BME280;5042;42.626;23.382;2023-02-10T10:40:16;95964.97;;;-0.69;63.91
10006;BME280;5042;42.626;23.382;2023-02-10T10:42:47;95972.03;;;-0.73;64.92
10006;BME280;5042;42.626;23.382;2023-02-10T10:45:18;95991.06;;;-0.59;66.07
10006;BME280;5042;42.626;23.382;2023-02-10T10:47:48;95963.72;;;-0.78;64.83
10006;BME280;5042;42.626;23.382;2023-02-10T10:50:18;95973.28;;;-0.48;66.89
10006;BME280;5042;42.626;23.382;2023-02-10T10:52:46;95976.13;;;-0.53;63.20
10006;BME280;5042;42.626;23.382;2023-02-10T10:55:21;95978.94;;;-0.41;64.60
10006;BME280;5042;42.626;23.382;2023-02-10T10:57:50;95972.56;;;-0.34;64.09
10006;BME280;5042;42.626;23.382;2023-02-10T11:00:20;95969.97;;;-0.18;62.52
10006;BME280;5042;42.626;23.382;2023-02-10T11:02:56;95936.06;;;-0.43;61.77
10006;BME280;5042;42.626;23.382;2023-02-10T11:05:27;95958.56;;;-0.14;64.09
10006;BME280;5042;42.626;23.382;2023-02-10T11:07:55;95957.78;;;-0.01;63.25
10006;BME280;5042;42.626;23.382;2023-02-10T11:10:28;95953.09;;;0.22;62.52
10006;BME280;5042;42.626;23.382;2023-02-10T11:12:57;95950.56;;;0.36;61.95
10006;BME280;5042;42.626;23.382;2023-02-10T11:15:31;95951.41;;;0.51;60.97
10006;BME280;5042;42.626;23.382;2023-02-10T11:18:00;95930.03;;;0.49;60.53
10006;BME280;5042;42.626;23.382;2023-02-10T11:20:29;95944.72;;;0.77;63.11
10006;BME280;5042;42.626;23.382;2023-02-10T11:22:57;95949.41;;;0.71;61.54
10006;BME280;5042;42.626;23.382;2023-02-10T11:25:29;95933.09;;;0.70;59.90
10006;BME280;5042;42.626;23.382;2023-02-10T11:27:58;95933.28;;;0.67;60.31
10006;BME280;5042;42.626;23.382;2023-02-10T11:30:26;95930.91;;;0.78;60.30
10006;BME280;5042;42.626;23.382;2023-02-10T11:32:54;95928.13;;;0.81;60.27
10006;BME280;5042;42.626;23.382;2023-02-10T11:35:21;95934.75;;;0.71;57.18
10006;BME280;5042;42.626;23.382;2023-02-10T11:37:52;95930.06;;;0.78;57.25
10006;BME280;5042;42.626;23.382;2023-02-10T11:40:22;95911.25;;;0.76;57.63
10006;BME280;5042;42.626;23.382;2023-02-10T11:42:53;95930.81;;;0.94;57.90
10006;BME280;5042;42.626;23.382;2023-02-10T11:45:23;95939.75;;;1.03;57.13
10006;BME280;5042;42.626;23.382;2023-02-10T11:48:00;95929.44;;;0.89;56.71
10006;BME280;5042;42.626;23.382;2023-02-10T11:50:29;95928.22;;;0.94;57.23
10006;BME280;5042;42.626;23.382;2023-02-10T11:52:57;95925.00;;;0.91;54.81
10006;BME280;5042;42.626;23.382;2023-02-10T11:55:31;95917.63;;;0.70;57.35
10006;BME280;5042;42.626;23.382;2023-02-10T11:58:19;95910.22;;;0.64;59.41
10006;BME280;5042;42.626;23.382;2023-02-10T12:01:09;95912.47;;;0.70;57.91
10006;BME280;5042;42.626;23.382;2023-02-10T12:06:30;95904.25;;;0.63;59.68
10006;BME280;5042;42.626;23.382;2023-02-10T12:09:02;95890.88;;;0.57;57.60
10006;BME280;5042;42.626;23.382;2023-02-10T12:11:41;95896.63;;;0.76;57.04
10006;BME280;5042;42.626;23.382;2023-02-10T12:14:32;95882.69;;;0.79;57.79
10006;BME280;5042;42.626;23.382;2023-02-10T12:17:19;95892.63;;;0.85;57.45
10006;BME280;5042;42.626;23.382;2023-02-10T12:19:59;95889.22;;;0.84;56.57
10006;BME280;5042;42.626;23.382;2023-02-10T12:22:35;95829.41;;;0.49;57.78
10006;BME280;5042;42.626;23.382;2023-02-10T12:25:13;95898.34;;;0.90;58.02
10006;BME280;5042;42.626;23.382;2023-02-10T12:27:51;95893.84;;;0.94;56.44
10006;BME280;5042;42.626;23.382;2023-02-10T12:30:33;95890.16;;;0.98;55.88
10006;BME280;5042;42.626;23.382;2023-02-10T12:33:16;95895.59;;;1.08;56.22
10006;BME280;5042;42.626;23.382;2023-02-10T12:35:52;95882.66;;;1.22;57.16
10006;BME280;5042;42.626;23.382;2023-02-10T12:38:39;95877.47;;;1.22;55.92
10006;BME280;5042;42.626;23.382;2023-02-10T12:41:15;95877.72;;;1.32;56.21
10006;BME280;5042;42.626;23.382;2023-02-10T12:43:58;95874.59;;;1.26;54.32
10006;BME280;5042;42.626;23.382;2023-02-10T12:46:34;95871.50;;;1.21;55.32
10006;BME280;5042;42.626;23.382;2023-02-10T12:49:14;95878.28;;;1.37;55.16
10006;BME280;5042;42.626;23.382;2023-02-10T12:52:06;95888.31;;;1.41;53.21
10006;BME280;5042;42.626;23.382;2023-02-10T12:54:41;95872.69;;;1.57;52.81
10006;BME280;5042;42.626;23.382;2023-02-10T12:57:14;95876.81;;;1.60;52.24
10006;BME280;5042;42.626;23.382;2023-02-10T12:59:49;95870.09;;;1.57;52.46
10006;BME280;5042;42.626;23.382;2023-02-10T13:02:24;95866.09;;;1.39;53.73
10006;BME280;5042;42.626;23.382;2023-02-10T13:04:54;95878.22;;;1.51;52.04
10006;BME280;5042;42.626;23.382;2023-02-10T13:07:36;95871.50;;;1.48;52.20
10006;BME280;5042;42.626;23.382;2023-02-10T13:10:16;95872.47;;;1.60;53.07
10006;BME280;5042;42.626;23.382;2023-02-10T13:12:46;95869.84;;;1.47;51.45
10006;BME280;5042;42.626;23.382;2023-02-10T13:15:15;95857.22;;;1.43;52.26